Kingville, South Carolina
Current Conditions -  °F | °C
As of 10:58 AM on Friday 24 Oct 2014 (Local Time) from KMMT Reporting Station
Scattered Clouds Scattered Clouds  
Wind Chill: 62°   Ceiling: Unl
Heat Index: 62°   Visibility: 10mi
Dew Point: 43°   Wind: 0mph
Humidity: 51%   Direction: NA
Pressure: 30.09"   Gusts: NA
Location:  33.8428°N, 80.7414°W
Report Text: KMMT 241458Z 00000KT 10SM FEW180 SCT220 16/06 A3009 RMK AO2A SLP192 T01640063 51012
Loading
Personal Weather Stations






























Interactive Weather Map New forecast layout! Learn more

10-Day Weather Forecast

Advertisements
Track Severe Weather on mobile